Portada
METAR-TAF:

METAR-TAF

Aeroports :

Ciudad Obregón, Mèxic

latitud: 27-24N, longitud: 109-50W, altitud: 62 m

Observació

L'informe es va fer fa 1 hora i 45 minuts, a les 01:47 UTC
Vent 8 kt del Sud-Oest
Temperatura 34°C
Humitat 41%
Pressió 1011 hPa
Visibilitat: 16.1 km
Cel clar

METAR: MMCN 010147Z 23008KT 10SM SKC 34/19 A2985 RMK DSNT CB E HZY

Hora: 20:32 (03:32 UTC)

Pronòstic

L'informe es va fer fa 10 hores i 58 minuts, a les 16:34 UTC
Pronòstic vàlid del 31 a les 18 UTC al 01 a les 18 UTC
Vent 10 kt del Oest
Visibilitat: 10 km
Cel clar
Evolucionant progressivament
l' 01 a les 03 UTC al 01 a les 04 UTC
Vent 5 kt del Sud
A partir de les 01 a les 1700 UTC
Vent 10 kt del Oest/Sud-Oest
Visibilitat: 10 km
Cel ennuvolat a una alçada de 20000 ft

TAF: MMCN 311634Z 3118/0118 28010KT P6SM SKC BECMG 0103/0104 18005KT FM011700 24010KT P6SM BKN200

Observacions i pronòstics meteorològics de més de 4000 aeroports (METAR i TAF).

Les estacions disponibles són els punts grocs i vermells al mapa.

Posi el ratolí al punt desitjat per veure el nom de l'estació.

Feu clic per veure les observacions i els pronòstics meteorològics.

Per canviar el mapa: feu clic els botons verds amb una creu de color negre per apropar; al botó verd amb un guió per allunyar la imatge; o en les fletxes verdes per a mapes adjacents.


METAR-TAF: